Time;durP1;ratioP1;P1;durP2;ratioP2;P2;SDS_P1;SDS_P2;PMS_P1;PMS_P2;Temp;Humidity;BMP_temperature;BMP_pressure;BME280_temperature;BME280_humidity;BME280_pressure;Samples;Min_cycle;Max_cycle;Signal;HPM_P1;HPM_P2
2021/05/18 00:00:17;;;;;;;2.20;1.40;;;;;;;11.65;100.00;99967.98;648801;218;32681;-75
2021/05/18 00:02:45;;;;;;;1.50;1.40;;;;;;;11.20;100.00;99982.11;658849;216;24816;-77
2021/05/18 00:05:13;;;;;;;3.00;1.67;;;;;;;11.13;100.00;99978.02;653981;216;24799;-78
2021/05/18 00:07:47;;;;;;;1.77;1.67;;;;;;;11.18;100.00;99970.56;655062;216;26997;-76
2021/05/18 00:12:44;;;;;;;2.07;1.70;;;;;;;11.12;100.00;99979.45;658328;218;24818;-75
2021/05/18 00:15:13;;;;;;;2.20;1.60;;;;;;;11.03;100.00;99969.50;652800;216;26952;-75
2021/05/18 00:17:41;;;;;;;4.47;1.83;;;;;;;11.07;100.00;99972.61;658337;215;24827;-74
2021/05/18 00:20:10;;;;;;;1.70;1.50;;;;;;;10.99;100.00;99978.11;653792;216;24823;-75
2021/05/18 00:22:38;;;;;;;4.83;1.77;;;;;;;11.03;100.00;99979.09;666570;213;24347;-75
2021/05/18 00:25:07;;;;;;;2.63;1.50;;;;;;;11.20;100.00;99987.32;648878;213;36691;-78
2021/05/18 00:27:35;;;;;;;2.50;1.43;;;;;;;11.36;100.00;99981.38;659463;213;34393;-75
2021/05/18 00:30:04;;;;;;;2.40;2.00;;;;;;;11.09;100.00;99979.28;651539;216;24813;-76
2021/05/18 00:32:32;;;;;;;1.53;1.40;;;;;;;11.21;100.00;99980.66;653768;216;24802;-77
2021/05/18 00:35:00;;;;;;;2.40;1.20;;;;;;;11.09;100.00;99977.16;656396;216;24875;-75
2021/05/18 00:37:28;;;;;;;1.67;1.50;;;;;;;10.97;100.00;99980.51;655213;217;24806;-75
2021/05/18 00:39:56;;;;;;;2.30;1.50;;;;;;;11.02;100.00;99987.88;651566;218;24796;-76
2021/05/18 00:42:25;;;;;;;2.60;1.67;;;;;;;10.93;100.00;99979.19;655272;218;24804;-75
2021/05/18 00:44:52;;;;;;;2.70;1.93;;;;;;;10.90;100.00;99980.80;662291;215;24958;-75
2021/05/18 00:47:20;;;;;;;2.10;1.73;;;;;;;11.13;100.00;99979.33;652406;218;24807;-75
2021/05/18 00:49:48;;;;;;;3.23;1.80;;;;;;;11.06;100.00;99972.27;652040;217;24733;-76
2021/05/18 00:52:16;;;;;;;1.67;1.50;;;;;;;10.93;100.00;99979.19;653733;219;24800;-75
2021/05/18 00:54:51;;;;;;;3.83;1.47;;;;;;;11.16;100.00;99982.91;654738;218;23801;-75
2021/05/18 00:59:45;;;;;;;1.40;1.30;;;;;;;11.12;100.00;99973.80;654249;213;24874;-75
2021/05/18 01:02:13;;;;;;;2.03;1.43;;;;;;;11.11;100.00;99977.34;655845;217;28312;-76
2021/05/18 01:04:43;;;;;;;2.00;1.43;;;;;;;11.08;100.00;99967.24;658068;215;24830;-77
2021/05/18 01:07:09;;;;;;;2.00;1.40;;;;;;;11.24;100.00;99964.72;655333;218;23824;-77
2021/05/18 01:09:37;;;;;;;1.70;1.60;;;;;;;11.20;100.00;99969.09;654648;216;24811;-78
2021/05/18 01:12:06;;;;;;;1.63;1.53;;;;;;;11.02;100.00;99965.27;655261;217;24807;-77
2021/05/18 01:14:34;;;;;;;1.63;1.27;;;;;;;11.07;100.00;99970.81;653125;216;24814;-77
2021/05/18 01:17:02;;;;;;;2.80;1.47;;;;;;;11.17;100.00;99968.93;658322;217;25012;-77
2021/05/18 01:19:31;;;;;;;2.03;1.03;;;;;;;11.14;100.00;99973.63;654277;215;24825;-77
2021/05/18 01:22:02;;;;;;;1.60;1.50;;;;;;;11.19;100.00;99972.19;655267;219;24881;-76
2021/05/18 01:24:27;;;;;;;2.90;1.50;;;;;;;11.27;100.00;99985.26;649370;216;32544;-75
2021/05/18 01:26:55;;;;;;;3.23;1.70;;;;;;;11.02;100.00;99983.48;653300;216;23711;-77
2021/05/18 01:29:24;;;;;;;5.17;1.50;;;;;;;10.97;100.00;99979.20;653638;217;24831;-75
2021/05/18 01:31:51;;;;;;;2.70;1.33;;;;;;;10.89;100.00;99978.69;663311;216;24844;-76
2021/05/18 01:34:19;;;;;;;3.83;1.50;;;;;;;10.75;100.00;99983.63;655776;216;24806;-75
2021/05/18 01:36:47;;;;;;;1.10;1.00;;;;;;;10.80;100.00;99983.98;656618;218;24833;-76
2021/05/18 01:44:42;;;;;;;0.90;0.90;;;;;;;10.44;100.00;99995.75;640244;218;24784;-77
2021/05/18 01:47:11;;;;;;;1.80;1.20;;;;;;;10.45;100.00;99992.18;658439;216;24867;-76
2021/05/18 01:49:37;;;;;;;2.00;1.27;;;;;;;10.44;100.00;99991.84;657855;217;24847;-79
2021/05/18 01:52:07;;;;;;;7.30;1.10;;;;;;;10.30;100.00;99988.47;655075;219;24821;-76
2021/05/18 01:54:34;;;;;;;2.10;1.30;;;;;;;10.37;100.00;99985.59;655829;219;24794;-78
2021/05/18 01:57:17;;;;;;;3.13;1.50;;;;;;;10.21;100.00;99989.32;655490;216;24840;-77
2021/05/18 01:59:44;;;;;;;2.83;1.23;;;;;;;10.22;100.00;99993.09;654318;218;24807;-77
2021/05/18 02:02:12;;;;;;;2.13;1.20;;;;;;;10.29;100.00;99998.54;654545;218;24840;-77
2021/05/18 02:04:40;;;;;;;3.77;1.10;;;;;;;10.29;100.00;99999.36;656853;219;28036;-76
2021/05/18 02:07:08;;;;;;;4.50;1.30;;;;;;;10.34;100.00;100001.50;652480;219;29240;-77
2021/05/18 02:09:37;;;;;;;1.83;0.90;;;;;;;10.17;100.00;100008.78;664193;215;25039;-76
2021/05/18 02:12:05;;;;;;;1.70;1.20;;;;;;;10.17;100.00;100006.19;660988;214;24855;-76
2021/05/18 02:14:34;;;;;;;1.20;1.10;;;;;;;10.20;100.00;100014.98;653522;218;24803;-76
2021/05/18 02:17:05;;;;;;;1.33;1.10;;;;;;;10.23;100.00;100009.51;659157;215;24826;-76
2021/05/18 02:19:40;;;;;;;7.30;1.37;;;;;;;10.25;100.00;100012.77;661608;217;24813;-76
2021/05/18 02:24:36;;;;;;;2.50;0.90;;;;;;;10.19;100.00;100012.05;658336;217;25118;-77
2021/05/18 02:25:02;;;;;;;2.60;1.17;;;;;;;10.18;100.00;100014.31;654969;213;24783;-77
2021/05/18 02:27:29;;;;;;;1.63;1.00;;;;;;;10.21;100.00;100017.45;654512;218;24917;-77
2021/05/18 02:29:57;;;;;;;1.73;0.80;;;;;;;10.18;100.00;100026.01;653968;218;23832;-77
2021/05/18 02:32:25;;;;;;;1.50;1.00;;;;;;;10.22;100.00;100028.19;653674;219;24783;-77
2021/05/18 02:34:53;;;;;;;1.73;1.10;;;;;;;10.27;100.00;100022.53;654174;219;24782;-77
2021/05/18 02:39:58;;;;;;;1.27;1.10;;;;;;;10.10;100.00;100026.25;652379;217;25451;-80
2021/05/18 02:42:26;;;;;;;3.37;0.90;;;;;;;10.20;100.00;100029.27;637327;223;25084;-78
2021/05/18 02:45:01;;;;;;;1.63;0.90;;;;;;;10.12;100.00;100036.00;649434;220;24751;-79
2021/05/18 02:49:56;;;;;;;0.90;0.90;;;;;;;10.09;100.00;100041.98;661772;212;24744;-81
2021/05/18 02:52:24;;;;;;;2.97;1.00;;;;;;;10.14;100.00;100035.89;664278;212;24720;-78
2021/05/18 02:54:54;;;;;;;1.00;0.80;;;;;;;10.15;100.00;100040.60;672451;212;24747;-78
2021/05/18 02:57:31;;;;;;;1.83;0.93;;;;;;;10.16;100.00;100038.34;638441;222;24844;-79
2021/05/18 02:59:49;;;;;;;1.33;0.70;;;;;;;10.17;100.00;100039.97;667211;213;24756;-78
2021/05/18 03:02:17;;;;;;;3.67;1.23;;;;;;;10.31;100.00;100040.79;663867;213;24728;-79
2021/05/18 03:04:45;;;;;;;1.47;0.90;;;;;;;10.19;100.00;100040.15;669001;212;24748;-79
2021/05/18 03:07:13;;;;;;;1.23;1.07;;;;;;;10.35;100.00;100043.42;676081;213;24763;-79
2021/05/18 03:09:41;;;;;;;2.03;1.10;;;;;;;10.25;100.00;100043.97;645443;221;24851;-79
2021/05/18 03:12:09;;;;;;;1.90;1.20;;;;;;;10.17;100.00;100041.27;641563;222;24834;-79
2021/05/18 03:14:37;;;;;;;0.80;0.80;;;;;;;10.26;100.00;100043.81;672573;212;24757;-79
2021/05/18 03:17:05;;;;;;;1.27;1.17;;;;;;;10.33;100.00;100046.66;637744;222;24810;-79
2021/05/18 03:19:33;;;;;;;0.80;0.80;;;;;;;10.26;100.00;100046.41;670057;213;27935;-79
2021/05/18 03:22:01;;;;;;;1.93;0.87;;;;;;;10.35;100.00;100044.72;644045;221;24800;-79
2021/05/18 03:24:29;;;;;;;0.93;0.83;;;;;;;10.30;100.00;100051.67;669785;213;24742;-78
2021/05/18 03:26:57;;;;;;;0.90;0.90;;;;;;;10.39;100.00;100052.55;646612;221;24825;-79
2021/05/18 03:29:28;;;;;;;1.10;1.00;;;;;;;10.30;100.00;100053.45;666596;213;24869;-79
2021/05/18 03:34:33;;;;;;;2.73;1.00;;;;;;;10.31;100.00;100058.98;643083;222;24950;-79
2021/05/18 03:37:02;;;;;;;2.20;0.80;;;;;;;10.30;100.00;100059.95;670263;213;24758;-78
2021/05/18 03:39:28;;;;;;;1.27;0.90;;;;;;;10.22;100.00;100059.86;668130;213;24754;-79
2021/05/18 03:42:01;;;;;;;0.70;0.70;;;;;;;10.15;100.00;100069.19;663664;213;24808;-78
2021/05/18 03:44:40;;;;;;;1.15;1.00;;;;;;;10.37;100.00;100062.28;641749;221;43542;-78
2021/05/18 03:54:50;;;;;;;2.03;1.43;;;;;;;10.34;100.00;100065.19;670832;212;24883;-78
2021/05/18 04:02:49;;;;;;;1.30;1.20;;;;;;;10.30;100.00;100080.27;667442;212;24741;-78
2021/05/18 04:05:18;;;;;;;1.13;1.00;;;;;;;10.26;100.00;100085.40;647040;222;24858;-78
2021/05/18 04:10:33;;;;;;;2.60;1.30;;;;;;;10.24;100.00;100093.02;647554;221;24844;-80
2021/05/18 04:12:50;;;;;;;1.10;1.00;;;;;;;10.32;100.00;100096.53;641050;222;24845;-78
2021/05/18 04:17:57;;;;;;;3.43;1.53;;;;;;;10.54;100.00;100098.36;669344;212;24816;-79
2021/05/18 04:20:30;;;;;;;5.53;1.97;;;;;;;10.59;100.00;100107.38;639883;222;24935;-78
2021/05/18 04:23:09;;;;;;;3.47;1.70;;;;;;;10.57;100.00;100107.19;669186;213;23776;-78
2021/05/18 04:25:47;;;;;;;1.93;1.53;;;;;;;10.55;100.00;100106.49;662860;213;24778;-78
2021/05/18 04:41:13;;;;;;;2.63;2.40;;;;;;;10.87;100.00;100113.31;647507;221;24862;-78
2021/05/18 04:51:35;;;;;;;3.93;2.83;;;;;;;10.84;100.00;100112.78;648622;218;24796;-76
2021/05/18 04:54:14;;;;;;;3.33;2.87;;;;;;;11.11;100.00;100111.37;667030;213;24736;-77
2021/05/18 04:59:12;;;;;;;4.33;2.73;;;;;;;11.26;100.00;100121.61;668347;213;24846;-79
2021/05/18 05:01:46;;;;;;;4.40;3.00;;;;;;;11.20;100.00;100119.59;673333;212;23779;-78
2021/05/18 05:04:22;;;;;;;5.00;2.93;;;;;;;11.49;100.00;100121.09;669209;212;32404;-78
2021/05/18 05:06:51;;;;;;;4.40;3.33;;;;;;;11.40;100.00;100127.20;646714;221;24918;-79
2021/05/18 05:09:22;;;;;;;2.33;2.13;;;;;;;11.15;100.00;100130.95;646342;221;27033;-78
2021/05/18 05:14:23;;;;;;;3.27;2.57;;;;;;;11.25;100.00;100134.27;645422;222;24817;-78
2021/05/18 05:16:50;;;;;;;2.97;2.77;;;;;;;11.05;100.00;100141.92;642847;222;24863;-79
2021/05/18 05:19:18;;;;;;;3.50;3.10;;;;;;;11.12;100.00;100139.52;670759;212;24779;-78
2021/05/18 05:21:46;;;;;;;4.33;2.63;;;;;;;11.31;100.00;100144.58;669835;213;24758;-79
2021/05/18 05:24:14;;;;;;;5.47;2.57;;;;;;;11.25;100.00;100138.66;639379;222;24853;-78
2021/05/18 05:26:42;;;;;;;2.70;2.50;;;;;;;11.18;100.00;100146.27;663436;213;24772;-79
2021/05/18 05:29:10;;;;;;;2.33;2.10;;;;;;;11.35;100.00;100145.08;642338;222;24846;-80
2021/05/18 05:31:38;;;;;;;2.60;2.33;;;;;;;11.26;100.00;100143.73;669746;213;24768;-79
2021/05/18 05:34:06;;;;;;;2.50;2.30;;;;;;;11.24;100.00;100144.34;666298;213;24790;-79
2021/05/18 05:36:34;;;;;;;3.23;2.47;;;;;;;11.25;100.00;100145.98;663190;213;24776;-78
2021/05/18 05:39:05;;;;;;;3.00;2.37;;;;;;;11.47;100.00;100139.48;668251;213;24769;-78
2021/05/18 05:41:31;;;;;;;2.50;2.30;;;;;;;11.40;100.00;100137.62;663522;213;24758;-79
2021/05/18 05:43:59;;;;;;;3.70;2.50;;;;;;;11.63;100.00;100143.16;646763;218;25989;-79
2021/05/18 05:46:27;;;;;;;3.63;2.80;;;;;;;11.68;100.00;100138.29;650737;218;24810;-79
2021/05/18 05:48:55;;;;;;;6.93;2.77;;;;;;;11.71;100.00;100138.82;649126;218;24797;-79
2021/05/18 05:51:24;;;;;;;2.43;2.27;;;;;;;11.77;100.00;100132.98;644859;219;24840;-80
2021/05/18 05:53:52;;;;;;;2.50;2.30;;;;;;;12.16;100.00;100139.88;640375;222;24843;-78
2021/05/18 05:56:20;;;;;;;2.57;1.83;;;;;;;12.62;100.00;100146.86;666619;213;24766;-77
2021/05/18 05:58:48;;;;;;;4.27;1.97;;;;;;;13.11;100.00;100133.06;668230;213;23806;-79
2021/05/18 06:01:16;;;;;;;1.80;1.70;;;;;;;12.80;98.77;100138.89;665891;213;24787;-79
2021/05/18 06:03:44;;;;;;;3.52;1.75;;;;;;;13.52;97.66;100143.84;642056;218;32831;-80
2021/05/18 06:06:12;;;;;;;3.80;1.57;;;;;;;13.45;95.31;100136.31;651193;218;23699;-80
2021/05/18 06:08:42;;;;;;;1.70;1.40;;;;;;;13.38;97.49;100145.81;667662;213;23800;-80
2021/05/18 06:11:10;;;;;;;2.50;1.60;;;;;;;13.13;96.55;100137.62;653191;218;23850;-80
2021/05/18 06:13:46;;;;;;;3.90;1.40;;;;;;;13.03;99.02;100150.34;652014;218;27037;-79
2021/05/18 06:34:41;;;;;;;1.50;1.20;;;;;;;13.89;93.88;100154.19;669404;213;26937;-80
2021/05/18 06:37:18;;;;;;;1.53;1.43;;;;;;;13.66;93.89;100154.92;646394;221;23841;-81
2021/05/18 06:42:35;;;;;;;1.90;1.57;;;;;;;14.17;91.15;100151.97;639125;221;23955;-79
2021/05/18 06:47:34;;;;;;;7.23;1.90;;;;;;;13.90;94.69;100164.48;672626;213;23753;-80
2021/05/18 06:50:10;;;;;;;5.63;1.40;;;;;;;13.94;93.57;100161.88;667169;213;23791;-80
2021/05/18 06:52:29;;;;;;;7.33;1.73;;;;;;;13.46;93.33;100164.08;665681;213;24786;-80
2021/05/18 06:54:59;;;;;;;4.10;1.83;;;;;;;13.21;94.84;100175.51;641811;222;24910;-80
2021/05/18 06:57:29;;;;;;;3.07;1.47;;;;;;;13.50;94.06;100169.78;637472;222;43377;-80
2021/05/18 07:02:29;;;;;;;5.37;1.80;;;;;;;13.67;93.35;100170.11;665389;213;23787;-79
2021/05/18 07:04:57;;;;;;;2.20;1.30;;;;;;;13.73;94.81;100184.30;666059;213;24801;-79
2021/05/18 07:07:30;;;;;;;1.53;1.43;;;;;;;13.39;95.56;100190.55;639643;221;26050;-80
2021/05/18 07:09:54;;;;;;;1.37;1.27;;;;;;;13.44;96.49;100198.70;668154;213;24801;-80
2021/05/18 07:12:22;;;;;;;2.50;1.20;;;;;;;13.02;97.11;100195.70;655190;218;23830;-80
2021/05/18 07:14:50;;;;;;;3.43;1.60;;;;;;;12.78;97.22;100207.41;652184;219;24798;-80
2021/05/18 07:17:18;;;;;;;2.70;1.67;;;;;;;12.64;99.04;100209.31;668421;213;24784;-79
2021/05/18 07:19:49;;;;;;;2.10;1.80;;;;;;;12.51;100.00;100213.67;667561;213;24792;-79
2021/05/18 07:22:17;;;;;;;3.73;2.10;;;;;;;12.72;100.00;100205.44;656918;218;24836;-80
2021/05/18 07:24:45;;;;;;;2.93;1.90;;;;;;;12.58;100.00;100211.27;648043;218;23853;-80
2021/05/18 07:27:13;;;;;;;4.00;1.73;;;;;;;12.72;100.00;100210.17;658224;216;24818;-80
2021/05/18 07:29:41;;;;;;;2.60;1.60;;;;;;;12.83;98.99;100211.67;639977;222;24999;-79
2021/05/18 07:32:09;;;;;;;3.77;1.67;;;;;;;12.84;100.00;100209.87;670331;212;23798;-79
2021/05/18 07:34:37;;;;;;;4.67;1.77;;;;;;;13.35;99.34;100212.73;668584;212;24853;-80
2021/05/18 07:37:07;;;;;;;5.27;2.40;;;;;;;13.80;95.68;100210.12;667347;212;24760;-80
2021/05/18 07:39:35;;;;;;;4.20;1.73;;;;;;;13.85;95.50;100208.62;665368;212;24775;-80
2021/05/18 07:42:08;;;;;;;4.57;1.60;;;;;;;13.49;94.69;100212.57;641269;222;24857;-80
2021/05/18 07:44:35;;;;;;;4.87;1.83;;;;;;;13.48;96.11;100216.16;667854;213;27966;-80
2021/05/18 07:47:04;;;;;;;5.30;1.80;;;;;;;13.74;95.47;100214.68;667347;213;23784;-80
2021/05/18 07:49:34;;;;;;;3.57;1.80;;;;;;;13.68;95.17;100212.25;639110;222;23881;-80
2021/05/18 08:00:00;;;;;;;3.13;1.87;;;;;;;13.24;92.53;100189.08;639259;222;23883;-79
2021/05/18 08:05:18;;;;;;;2.10;1.27;;;;;;;13.68;93.69;100202.28;671090;213;23784;-80
2021/05/18 08:07:46;;;;;;;4.67;1.53;;;;;;;14.21;93.06;100190.69;657003;218;24802;-80
2021/05/18 08:10:16;;;;;;;8.73;1.87;;;;;;;14.12;91.44;100189.11;650218;218;24839;-80
2021/05/18 08:12:42;;;;;;;2.87;1.90;;;;;;;14.35;90.61;100192.28;663090;213;24775;-80
2021/05/18 08:15:31;;;;;;;6.28;1.42;;;;;;;14.42;85.47;100177.05;659898;213;33917;-79
2021/05/18 08:17:53;;;;;;;2.57;1.40;;;;;;;14.21;90.48;100185.95;653676;218;24798;-80
2021/05/18 08:20:33;;;;;;;7.50;2.20;;;;;;;13.99;89.74;100180.16;668152;213;23806;-80
2021/05/18 08:46:30;;;;;;;5.90;1.77;;;;;;;14.51;88.92;100176.56;668351;213;23761;-80
2021/05/18 09:35:48;;;;;;;3.67;1.30;;;;;;;13.65;90.76;100152.45;667293;213;24807;-79
2021/05/18 09:49:08;;;;;;;5.87;1.13;;;;;;;15.25;84.35;100125.30;662179;212;26963;-80
2021/05/18 10:22:00;;;;;;;2.72;1.12;;;;;;;15.84;72.56;100067.67;661663;213;32391;-79
2021/05/18 10:27:34;;;;;;;2.17;1.10;;;;;;;14.97;78.45;100120.30;651642;218;24791;-79
2021/05/18 10:34:57;;;;;;;0.90;0.70;;;;;;;13.15;85.72;100148.23;642367;222;23803;-80
2021/05/18 10:37:33;;;;;;;2.72;1.00;;;;;;;13.03;86.64;100153.45;640028;222;43353;-80
2021/05/18 10:40:25;;;;;;;1.47;0.70;;;;;;;12.90;87.26;100144.78;664348;213;25853;-80
2021/05/18 10:43:04;;;;;;;3.10;0.90;;;;;;;12.81;87.35;100140.55;662850;213;23765;-79
2021/05/18 10:45:56;;;;;;;1.17;0.70;;;;;;;12.49;88.92;100139.48;639064;222;23860;-79
2021/05/18 10:48:24;;;;;;;1.97;0.80;;;;;;;12.55;88.16;100130.23;670853;213;24770;-79
2021/05/18 10:50:52;;;;;;;2.43;0.83;;;;;;;12.66;87.18;100113.42;668286;213;24754;-80
2021/05/18 10:53:21;;;;;;;4.73;0.97;;;;;;;12.94;86.19;100108.72;669571;213;23768;-79
2021/05/18 10:56:03;;;;;;;2.10;0.80;;;;;;;13.11;86.69;100104.34;648551;221;24857;-79
2021/05/18 10:58:33;;;;;;;1.60;1.00;;;;;;;13.74;85.01;100110.12;645732;220;24839;-79
2021/05/18 11:01:03;;;;;;;2.83;1.00;;;;;;;14.04;81.89;100097.59;648279;220;24855;-79
2021/05/18 11:03:32;;;;;;;1.17;0.80;;;;;;;14.38;82.11;100094.66;668927;212;24742;-80
2021/05/18 11:06:06;;;;;;;1.10;0.70;;;;;;;14.52;80.02;100087.89;672267;212;24756;-79
2021/05/18 11:08:34;;;;;;;1.37;0.70;;;;;;;14.32;79.12;100073.58;670733;212;25909;-79
2021/05/18 11:11:01;;;;;;;2.00;0.90;;;;;;;14.55;79.33;100077.07;642895;222;24838;-80
2021/05/18 11:13:30;;;;;;;1.40;0.70;;;;;;;14.33;78.42;100072.59;670437;212;23773;-80
2021/05/18 11:15:58;;;;;;;2.73;1.03;;;;;;;13.66;78.71;100075.20;669287;212;24739;-80
2021/05/18 11:18:31;;;;;;;2.97;0.80;;;;;;;13.82;81.10;100093.12;671579;213;24785;-80
2021/05/18 11:20:59;;;;;;;5.87;1.00;;;;;;;14.73;80.51;100090.67;670158;213;24733;-79
2021/05/18 11:23:27;;;;;;;2.90;0.80;;;;;;;15.18;77.08;100066.72;658380;213;32385;-78
2021/05/18 11:25:56;;;;;;;1.87;0.60;;;;;;;15.32;74.24;100061.18;654261;218;23696;-79
2021/05/18 11:28:24;;;;;;;4.70;0.90;;;;;;;15.49;75.42;100057.42;675486;213;24756;-79
2021/05/18 11:30:53;;;;;;;5.10;0.90;;;;;;;15.44;75.41;100056.63;666410;213;24791;-79
2021/05/18 11:33:21;;;;;;;3.03;0.70;;;;;;;15.67;73.33;100061.00;668041;213;24855;-77
2021/05/18 11:36:01;;;;;;;2.23;1.00;;;;;;;15.50;74.06;100052.98;668581;213;24748;-77
2021/05/18 11:38:29;;;;;;;0.67;0.60;;;;;;;15.64;71.79;100050.89;655720;217;24797;-77
2021/05/18 11:40:57;;;;;;;2.70;0.80;;;;;;;16.06;73.11;100051.51;651820;219;24791;-78
2021/05/18 11:43:25;;;;;;;2.60;0.70;;;;;;;15.76;75.19;100052.53;674328;213;23803;-80
2021/05/18 11:45:53;;;;;;;2.93;0.80;;;;;;;16.08;75.96;100060.00;639934;222;24855;-81
2021/05/18 11:48:21;;;;;;;3.23;1.13;;;;;;;15.96;75.24;100054.41;665265;213;24778;-80
2021/05/18 11:51:00;;;;;;;2.67;0.70;;;;;;;16.53;75.35;100054.92;672511;213;23786;-80
2021/05/18 11:53:28;;;;;;;2.87;0.80;;;;;;;16.71;74.03;100048.43;650157;218;23826;-81
2021/05/18 11:55:58;;;;;;;2.10;0.60;;;;;;;16.89;73.06;100044.84;660311;213;23760;-80
2021/05/18 11:58:25;;;;;;;0.80;0.57;;;;;;;16.95;72.25;100032.27;643795;222;23857;-81
2021/05/18 12:01:05;;;;;;;2.57;0.60;;;;;;;16.47;72.50;100033.36;670570;213;23775;-80
2021/05/18 12:03:34;;;;;;;2.50;0.80;;;;;;;16.37;71.83;100028.91;666635;213;23766;-79
2021/05/18 12:06:01;;;;;;;2.93;0.70;;;;;;;16.76;75.77;100034.25;666249;213;23780;-80
2021/05/18 12:08:30;;;;;;;1.63;0.80;;;;;;;16.70;72.02;100026.61;669358;213;24760;-82
2021/05/18 12:11:13;;;;;;;1.80;0.90;;;;;;;16.71;71.98;100024.80;665685;210;27966;-74
2021/05/18 12:13:41;;;;;;;1.37;0.80;;;;;;;16.79;74.72;100037.81;669780;212;23774;-74
2021/05/18 12:16:09;;;;;;;2.10;0.80;;;;;;;16.66;72.20;100025.84;671277;212;24749;-73
2021/05/18 12:18:37;;;;;;;1.13;0.70;;;;;;;16.70;69.96;99996.91;652335;218;23821;-73
2021/05/18 12:21:05;;;;;;;2.43;0.70;;;;;;;16.58;68.99;99997.89;641186;222;23863;-73
2021/05/18 12:23:33;;;;;;;3.90;0.60;;;;;;;16.71;63.73;99970.95;673262;212;23774;-76
2021/05/18 12:26:11;;;;;;;1.33;0.63;;;;;;;16.62;63.18;99965.02;644282;222;25106;-78
2021/05/18 12:28:39;;;;;;;0.50;0.50;;;;;;;17.11;65.12;99958.39;672412;212;24818;-80
2021/05/18 12:31:07;;;;;;;1.07;0.60;;;;;;;17.44;64.29;99961.67;636599;222;23839;-78
2021/05/18 12:33:37;;;;;;;0.60;0.60;;;;;;;17.37;63.78;99952.97;674426;213;24765;-80
2021/05/18 12:36:06;;;;;;;0.60;0.50;;;;;;;17.13;59.77;99937.98;673256;213;23767;-81
2021/05/18 12:38:34;;;;;;;1.87;0.83;;;;;;;17.27;62.46;99954.63;654095;218;24784;-80
2021/05/18 12:41:03;;;;;;;1.03;0.60;;;;;;;17.22;62.39;99950.47;672890;213;24750;-80
2021/05/18 12:43:38;;;;;;;2.40;0.90;;;;;;;17.13;62.83;99952.44;659065;218;24846;-80
2021/05/18 12:46:08;;;;;;;0.78;0.50;;;;;;;16.89;61.06;99962.92;663904;213;32379;-80
2021/05/18 12:48:38;;;;;;;2.47;0.70;;;;;;;17.03;61.73;99955.94;667012;211;25791;-81
2021/05/18 12:51:17;;;;;;;1.00;0.60;;;;;;;16.85;62.00;99949.03;643944;222;23856;-80
2021/05/18 12:53:45;;;;;;;1.90;0.80;;;;;;;17.61;63.65;99966.93;648062;219;32417;-81
2021/05/18 12:56:28;;;;;;;2.30;0.70;;;;;;;17.55;62.58;99957.17;667755;213;23641;-80
2021/05/18 12:59:04;;;;;;;0.70;0.60;;;;;;;17.30;62.70;99969.20;653495;218;26968;-79
2021/05/18 13:01:41;;;;;;;2.77;0.70;;;;;;;17.46;63.69;99971.52;669908;213;23847;-80
2021/05/18 13:04:10;;;;;;;1.03;0.70;;;;;;;17.76;63.64;99963.67;672336;213;24805;-80
2021/05/18 13:06:44;;;;;;;1.23;0.60;;;;;;;17.92;62.95;99973.52;665841;213;23781;-80
2021/05/18 13:09:18;;;;;;;0.80;0.60;;;;;;;17.77;60.47;99956.59;674197;213;24777;-80
2021/05/18 13:14:21;;;;;;;1.77;0.60;;;;;;;17.86;65.75;99971.67;666992;213;23792;-79
2021/05/18 13:16:49;;;;;;;1.50;0.60;;;;;;;17.57;62.24;99958.30;646788;221;25875;-80
2021/05/18 13:19:17;;;;;;;1.53;0.70;;;;;;;17.80;61.78;99950.41;667895;213;23776;-80
2021/05/18 13:21:48;;;;;;;1.77;0.60;;;;;;;17.32;61.74;99951.44;644993;220;23848;-79
2021/05/18 13:26:52;;;;;;;1.43;0.70;;;;;;;16.87;62.64;99950.96;648933;220;23860;-80
2021/05/18 13:29:20;;;;;;;2.47;0.70;;;;;;;16.88;62.28;99951.27;646910;221;23854;-80
2021/05/18 13:31:49;;;;;;;2.10;0.70;;;;;;;17.33;61.42;99946.48;665052;212;24785;-81
2021/05/18 13:34:17;;;;;;;0.90;0.60;;;;;;;17.49;62.04;99944.83;670058;212;23796;-80
2021/05/18 13:36:45;;;;;;;1.40;0.67;;;;;;;17.68;59.96;99936.69;653634;217;23801;-80
2021/05/18 13:39:13;;;;;;;1.63;0.63;;;;;;;17.94;59.70;99935.98;667275;213;23790;-80
2021/05/18 13:41:41;;;;;;;1.93;0.80;;;;;;;18.18;59.70;99921.44;640292;222;23845;-81
2021/05/18 13:44:09;;;;;;;2.15;0.70;;;;;;;18.02;60.61;99929.22;666367;213;32369;-81
2021/05/18 13:46:37;;;;;;;1.33;0.60;;;;;;;17.97;60.06;99930.30;647121;222;23764;-81
2021/05/18 13:49:06;;;;;;;1.03;0.60;;;;;;;17.46;59.24;99925.50;673679;213;23813;-81
2021/05/18 13:51:34;;;;;;;3.30;0.70;;;;;;;17.27;62.64;99945.94;647765;218;32454;-81
2021/05/18 13:54:05;;;;;;;2.50;0.70;;;;;;;16.77;63.71;99959.20;651832;219;22727;-80
2021/05/18 13:56:33;;;;;;;2.57;0.70;;;;;;;16.27;65.31;99971.98;652478;218;23838;-80
2021/05/18 13:59:01;;;;;;;2.43;0.73;;;;;;;16.40;64.94;99981.28;642341;222;24892;-80
2021/05/18 14:01:29;;;;;;;3.03;0.87;;;;;;;16.14;67.53;99994.15;671811;213;23749;-82
2021/05/18 14:03:57;;;;;;;4.93;1.07;;;;;;;15.91;70.05;100009.57;666213;213;24775;-80
2021/05/18 14:06:25;;;;;;;3.23;0.70;;;;;;;16.16;68.76;100014.45;637408;222;29153;-81
2021/05/18 14:08:53;;;;;;;1.07;0.80;;;;;;;15.97;67.07;100015.38;667911;213;23773;-80
2021/05/18 14:11:22;;;;;;;1.03;0.70;;;;;;;16.57;65.68;100006.27;671315;212;25936;-80
2021/05/18 14:13:49;;;;;;;5.10;0.70;;;;;;;17.40;66.47;99999.89;664906;213;23784;-81
2021/05/18 14:16:18;;;;;;;2.50;0.63;;;;;;;18.37;65.06;99990.41;665460;213;23789;-80
2021/05/18 14:18:46;;;;;;;2.73;0.80;;;;;;;18.27;62.41;99974.18;641053;220;24919;-81
2021/05/18 14:21:14;;;;;;;1.80;0.97;;;;;;;18.96;61.26;99951.39;668680;213;23849;-81
2021/05/18 14:23:47;;;;;;;2.83;1.43;;;;;;;18.77;61.13;99949.09;636385;222;23900;-81
2021/05/18 14:26:10;;;;;;;1.87;0.87;;;;;;;18.83;61.55;99940.86;666203;213;23813;-81
2021/05/18 14:28:38;;;;;;;1.77;1.07;;;;;;;18.39;61.63;99940.47;664727;213;24769;-81
2021/05/18 14:31:06;;;;;;;3.63;0.97;;;;;;;19.27;61.50;99940.14;671437;211;24811;-80
2021/05/18 14:33:35;;;;;;;1.30;0.90;;;;;;;19.03;62.11;99937.70;666525;210;23807;-81
2021/05/18 14:36:04;;;;;;;1.13;0.70;;;;;;;18.68;62.74;99937.14;676770;212;26942;-81
2021/05/18 14:38:36;;;;;;;1.70;0.77;;;;;;;18.20;65.31;99936.02;648461;221;23853;-81
2021/05/18 14:44:01;;;;;;;1.10;1.00;;;;;;;17.04;67.74;99973.83;669954;213;23769;-81
2021/05/18 14:46:29;;;;;;;3.20;0.80;;;;;;;16.33;73.15;100000.92;670756;212;23772;-80
2021/05/18 14:54:21;;;;;;;8.47;2.17;;;;;;;12.57;87.58;100070.87;641722;222;25087;-81
2021/05/18 14:56:42;;;;;;;15.20;2.43;;;;;;;11.64;86.02;100064.84;670851;213;23792;-81
2021/05/18 14:59:09;;;;;;;9.17;1.60;;;;;;;11.67;86.36;100056.72;666533;213;27940;-81
2021/05/18 15:01:37;;;;;;;1.87;0.80;;;;;;;11.85;83.77;100041.86;672646;213;26969;-81
2021/05/18 15:04:06;;;;;;;3.10;0.70;;;;;;;12.09;83.71;100050.71;667612;213;23778;-80
2021/05/18 15:06:34;;;;;;;4.47;1.20;;;;;;;12.58;86.94;100069.08;667061;213;24813;-81
2021/05/18 15:09:05;;;;;;;3.67;1.47;;;;;;;13.04;88.51;100059.28;667001;212;27005;-81
2021/05/18 15:11:33;;;;;;;2.40;0.90;;;;;;;13.30;86.62;100053.08;664424;213;24811;-81
2021/05/18 15:14:02;;;;;;;2.70;1.20;;;;;;;13.73;86.73;100063.57;647242;221;24828;-82
2021/05/18 15:16:31;;;;;;;1.17;1.00;;;;;;;14.02;86.30;100055.59;645552;221;24869;-81
2021/05/18 15:19:04;;;;;;;1.37;0.90;;;;;;;14.21;86.77;100057.28;644943;221;26003;-81
2021/05/18 15:21:30;;;;;;;2.90;1.23;;;;;;;14.43;86.61;100060.92;668274;213;23783;-81
2021/05/18 15:23:59;;;;;;;7.50;1.70;;;;;;;14.33;89.77;100065.55;666166;213;23855;-81
2021/05/18 15:26:26;;;;;;;6.80;3.20;;;;;;;14.11;91.10;100064.55;665002;209;24750;-81